createdAt,value
2017-11-11T00:01:47.272Z,6.70
2017-11-11T00:04:15.021Z,6.60
2017-11-11T00:06:42.803Z,6.50
2017-11-11T00:09:10.576Z,6.40
2017-11-11T00:11:38.337Z,6.40
2017-11-11T00:14:06.114Z,6.30
2017-11-11T00:16:33.855Z,6.30
2017-11-11T00:19:01.591Z,6.30
2017-11-11T00:21:29.382Z,6.40
2017-11-11T00:23:57.130Z,6.30
2017-11-11T00:26:24.867Z,6.30
2017-11-11T00:28:52.648Z,6.30
2017-11-11T00:31:20.387Z,6.30
2017-11-11T00:33:48.126Z,6.30
2017-11-11T00:36:16.672Z,6.30
2017-11-11T00:38:44.416Z,6.30
2017-11-11T00:41:12.159Z,6.40
2017-11-11T00:43:39.940Z,6.40
2017-11-11T00:46:08.457Z,6.20
2017-11-11T00:48:36.201Z,6.20
2017-11-11T00:51:03.978Z,6.00
2017-11-11T00:53:31.737Z,5.90
2017-11-11T00:55:59.479Z,5.80
2017-11-11T00:58:27.262Z,5.60
2017-11-11T01:00:55.017Z,5.50
2017-11-11T01:03:22.765Z,5.40
2017-11-11T01:05:50.548Z,5.40
2017-11-11T01:08:18.292Z,5.50
2017-11-11T01:10:46.027Z,5.60
2017-11-11T01:13:13.828Z,5.70
2017-11-11T01:15:41.583Z,5.80
2017-11-11T01:18:09.319Z,5.90
2017-11-11T01:20:37.095Z,5.90
2017-11-11T01:23:04.835Z,6.00
2017-11-11T01:25:32.584Z,6.10
2017-11-11T01:28:00.365Z,6.10
2017-11-11T01:30:28.108Z,6.20
2017-11-11T01:32:55.852Z,6.10
2017-11-11T01:35:24.399Z,6.20
2017-11-11T01:37:52.140Z,6.20
2017-11-11T01:40:20.663Z,6.30
2017-11-11T01:42:49.257Z,6.30
2017-11-11T01:45:17.767Z,6.30
2017-11-11T01:47:45.506Z,6.30
2017-11-11T01:50:13.363Z,6.30
2017-11-11T01:52:41.111Z,6.30
2017-11-11T01:55:09.622Z,6.20
2017-11-11T01:57:37.406Z,6.20
2017-11-11T02:00:05.166Z,6.10
2017-11-11T02:02:32.900Z,5.90
2017-11-11T02:05:00.675Z,5.80
2017-11-11T02:07:28.407Z,5.60
2017-11-11T02:09:56.924Z,5.40
2017-11-11T02:12:24.724Z,5.40
2017-11-11T02:14:52.473Z,5.50
2017-11-11T02:17:20.239Z,5.60
2017-11-11T02:19:48.204Z,5.60
2017-11-11T02:22:15.946Z,5.60
2017-11-11T02:24:43.691Z,5.60
2017-11-11T02:27:11.471Z,5.60
2017-11-11T02:29:39.228Z,5.50
2017-11-11T02:32:06.976Z,5.50
2017-11-11T02:34:34.781Z,5.50
2017-11-11T02:37:02.549Z,5.50
2017-11-11T02:39:30.322Z,5.40
2017-11-11T02:41:58.886Z,5.20
2017-11-11T02:44:26.639Z,5.10
2017-11-11T02:46:54.390Z,5.10
2017-11-11T02:49:22.179Z,5.10
2017-11-11T02:51:50.711Z,5.00
2017-11-11T02:54:18.450Z,4.90
2017-11-11T02:56:46.232Z,4.90
2017-11-11T02:59:14.005Z,4.80
2017-11-11T03:01:41.751Z,4.80
2017-11-11T03:04:09.539Z,4.80
2017-11-11T03:06:37.279Z,4.90
2017-11-11T03:09:05.019Z,5.10
2017-11-11T03:11:32.791Z,5.20
2017-11-11T03:14:00.552Z,5.30
2017-11-11T03:16:28.324Z,5.30
2017-11-11T03:18:56.118Z,5.30
2017-11-11T03:21:23.872Z,5.40
2017-11-11T03:23:51.606Z,5.50
2017-11-11T03:26:19.408Z,5.50
2017-11-11T03:28:47.156Z,5.40
2017-11-11T03:31:14.897Z,5.30
2017-11-11T03:33:42.683Z,5.20
2017-11-11T03:36:10.419Z,5.20
2017-11-11T03:38:38.160Z,5.30
2017-11-11T03:41:05.930Z,5.40
2017-11-11T03:43:33.691Z,5.40
2017-11-11T03:46:01.443Z,5.60
2017-11-11T03:48:29.271Z,5.70
2017-11-11T03:50:57.788Z,5.70
2017-11-11T03:53:25.536Z,5.60
2017-11-11T03:55:53.338Z,5.70
2017-11-11T03:58:21.075Z,5.70
2017-11-11T04:00:48.818Z,5.70
2017-11-11T04:03:17.377Z,5.60
2017-11-11T04:05:45.123Z,5.60
2017-11-11T04:08:12.883Z,5.60
2017-11-11T04:10:40.682Z,5.50
2017-11-11T04:13:09.188Z,5.30
2017-11-11T04:15:36.944Z,5.30
2017-11-11T04:18:04.731Z,5.20
2017-11-11T04:20:32.480Z,5.20
2017-11-11T04:23:00.244Z,5.30
2017-11-11T04:25:28.024Z,5.30
2017-11-11T04:27:56.531Z,5.20
2017-11-11T04:30:25.046Z,5.10
2017-11-11T04:32:52.828Z,5.10
2017-11-11T04:35:20.572Z,5.00
2017-11-11T04:37:48.323Z,5.10
2017-11-11T04:40:16.109Z,5.10
2017-11-11T04:42:43.852Z,5.20
2017-11-11T04:45:11.596Z,5.30
2017-11-11T04:47:40.147Z,5.40
2017-11-11T04:50:07.903Z,5.40
2017-11-11T04:52:35.709Z,5.50
2017-11-11T04:55:03.500Z,5.50
2017-11-11T04:57:31.264Z,5.50
2017-11-11T04:59:59.020Z,5.50
2017-11-11T05:02:26.803Z,5.50
2017-11-11T05:04:54.560Z,5.50
2017-11-11T05:07:22.297Z,5.60
2017-11-11T05:09:50.105Z,5.70
2017-11-11T05:12:17.893Z,5.60
2017-11-11T05:14:46.407Z,5.70
2017-11-11T05:17:14.193Z,5.60
2017-11-11T05:19:41.975Z,5.70
2017-11-11T05:22:09.719Z,5.70
2017-11-11T05:24:37.507Z,5.70
2017-11-11T05:27:06.017Z,5.60
2017-11-11T05:29:33.761Z,5.60
2017-11-11T05:32:01.555Z,5.70
2017-11-11T05:34:29.360Z,5.70
2017-11-11T05:36:57.120Z,5.80
2017-11-11T05:39:24.894Z,5.80
2017-11-11T05:41:53.408Z,5.70
2017-11-11T05:44:21.146Z,5.70
2017-11-11T05:46:49.699Z,5.70
2017-11-11T05:49:17.461Z,5.70
2017-11-11T05:51:45.200Z,5.70
2017-11-11T05:54:13.000Z,5.70
2017-11-11T05:56:41.513Z,5.70
2017-11-11T05:59:09.247Z,5.60
2017-11-11T06:01:37.819Z,5.60
2017-11-11T06:04:06.336Z,5.50
2017-11-11T06:06:34.079Z,5.50
2017-11-11T06:09:02.637Z,5.50
2017-11-11T06:11:30.379Z,5.40
2017-11-11T06:13:58.117Z,5.50
2017-11-11T06:16:25.900Z,5.50
2017-11-11T06:18:53.657Z,5.70
2017-11-11T06:21:21.418Z,5.70
2017-11-11T06:23:49.204Z,5.80
2017-11-11T06:26:16.955Z,5.80
2017-11-11T06:28:44.711Z,5.80
2017-11-11T06:31:12.501Z,5.80
2017-11-11T06:33:41.002Z,5.90
2017-11-11T06:36:08.741Z,5.90
2017-11-11T06:38:37.296Z,5.90
2017-11-11T06:41:05.041Z,5.90
2017-11-11T06:43:32.889Z,5.90
2017-11-11T06:46:00.793Z,6.00
2017-11-11T06:48:28.542Z,6.10
2017-11-11T06:50:56.282Z,6.10
2017-11-11T06:53:24.067Z,6.20
2017-11-11T06:55:51.837Z,6.20
2017-11-11T06:58:19.583Z,6.30
2017-11-11T07:00:47.362Z,6.40
2017-11-11T07:03:15.105Z,6.50
2017-11-11T07:05:42.854Z,6.60
2017-11-11T07:08:10.636Z,6.60
2017-11-11T07:10:38.371Z,6.70
2017-11-11T07:13:06.118Z,6.70
2017-11-11T07:15:33.894Z,6.60
2017-11-11T07:18:01.631Z,6.70
2017-11-11T07:20:29.385Z,6.70
2017-11-11T07:22:57.172Z,6.60
2017-11-11T07:25:24.915Z,6.50
2017-11-11T07:27:52.661Z,6.60
2017-11-11T07:30:21.205Z,8.40
2017-11-11T07:32:48.971Z,8.40
2017-11-11T07:35:16.720Z,8.80
2017-11-11T07:37:44.505Z,8.70
2017-11-11T07:40:12.460Z,8.30
2017-11-11T07:42:40.215Z,8.00
2017-11-11T07:45:08.118Z,7.70
2017-11-11T07:47:36.638Z,7.40
2017-11-11T07:50:04.376Z,7.40
2017-11-11T07:52:32.176Z,7.40
2017-11-11T07:55:00.794Z,7.30
2017-11-11T07:57:29.303Z,7.40
2017-11-11T07:59:57.083Z,7.40
2017-11-11T08:02:24.903Z,7.40
2017-11-11T08:04:52.653Z,7.50
2017-11-11T08:07:20.464Z,7.60
2017-11-11T08:09:48.203Z,7.60
2017-11-11T08:12:16.760Z,8.00
2017-11-11T08:14:45.312Z,8.20
2017-11-11T08:17:13.051Z,8.10
2017-11-11T08:19:40.794Z,8.50
2017-11-11T08:22:08.580Z,8.60
2017-11-11T08:24:36.332Z,8.60
2017-11-11T08:27:04.076Z,8.50
2017-11-11T08:29:31.885Z,8.40
2017-11-11T08:31:59.658Z,9.20
2017-11-11T08:34:27.425Z,10.60
2017-11-11T08:36:55.216Z,11.50
2017-11-11T08:39:22.998Z,12.60
2017-11-11T08:41:50.761Z,12.90
2017-11-11T08:44:18.560Z,12.60
2017-11-11T08:46:46.301Z,11.80
2017-11-11T08:49:14.054Z,10.90
2017-11-11T08:51:41.842Z,10.10
2017-11-11T08:54:09.583Z,9.80
2017-11-11T08:56:37.337Z,10.00
2017-11-11T08:59:05.129Z,10.00
2017-11-11T09:01:32.868Z,9.90
2017-11-11T09:04:00.606Z,9.90
2017-11-11T09:06:28.424Z,9.70
2017-11-11T09:08:56.173Z,9.50
2017-11-11T09:11:23.914Z,9.50
2017-11-11T09:13:51.719Z,9.60
2017-11-11T09:16:19.465Z,9.80
2017-11-11T09:18:47.236Z,10.00
2017-11-11T09:21:15.086Z,10.30
2017-11-11T09:23:42.948Z,10.50
2017-11-11T09:26:10.706Z,10.60
2017-11-11T09:28:38.491Z,10.40
2017-11-11T09:31:06.252Z,10.00
2017-11-11T09:33:33.998Z,9.90
2017-11-11T09:36:01.778Z,9.90
2017-11-11T09:38:30.292Z,9.70
2017-11-11T09:40:58.204Z,9.70
2017-11-11T09:43:26.872Z,9.70
2017-11-11T09:45:54.627Z,9.80
2017-11-11T09:48:22.396Z,9.80
2017-11-11T09:50:50.283Z,9.70
2017-11-11T09:53:18.146Z,9.70
2017-11-11T09:55:45.894Z,9.60
2017-11-11T09:58:13.753Z,9.60
2017-11-11T10:00:41.640Z,9.80
2017-11-11T10:03:09.391Z,9.90
2017-11-11T10:05:37.191Z,9.80
2017-11-11T10:08:04.970Z,9.80
2017-11-11T10:10:32.724Z,9.80
2017-11-11T10:13:00.521Z,9.60
2017-11-11T10:15:28.268Z,9.50
2017-11-11T10:17:56.010Z,9.50
2017-11-11T10:20:23.791Z,9.50
2017-11-11T10:22:51.593Z,9.60
2017-11-11T10:25:19.334Z,9.50
2017-11-11T11:21:06.413Z,9.40
2017-11-11T11:23:34.216Z,9.50
2017-11-11T11:26:02.071Z,9.70
2017-11-11T11:28:30.050Z,9.80
2017-11-11T11:30:58.575Z,9.60
2017-11-11T11:33:26.327Z,9.50
2017-11-11T11:35:54.124Z,9.40
2017-11-11T12:07:53.217Z,9.70
2017-11-11T12:10:21.080Z,9.60
2017-11-11T12:12:48.945Z,9.60
2017-11-11T12:15:16.780Z,9.60
2017-11-11T12:17:44.533Z,9.60
2017-11-11T12:20:12.284Z,9.50
2017-11-11T12:22:40.195Z,9.50
2017-11-11T12:25:08.063Z,9.30
2017-11-11T12:27:35.820Z,9.00
2017-11-11T12:30:03.688Z,8.90
2017-11-11T12:32:31.440Z,8.70
2017-11-11T12:34:59.194Z,8.50
2017-11-11T12:37:26.972Z,8.30
2017-11-11T12:39:54.727Z,8.20
2017-11-11T12:42:22.595Z,8.20
2017-11-11T12:44:50.379Z,8.20
2017-11-11T12:47:18.123Z,8.20
2017-11-11T12:49:45.982Z,8.40
2017-11-11T12:52:13.876Z,8.50
2017-11-11T12:54:42.399Z,8.70
2017-11-11T12:57:10.151Z,8.70
2017-11-11T12:59:37.949Z,8.80
2017-11-11T13:02:05.815Z,8.90
2017-11-11T13:04:33.677Z,9.10
2017-11-11T13:07:01.463Z,9.20
2017-11-11T13:09:29.202Z,9.20
2017-11-11T13:11:56.961Z,9.20
2017-11-11T13:14:24.739Z,9.20
2017-11-11T13:16:52.484Z,9.10
2017-11-11T13:19:20.232Z,9.00
2017-11-11T13:21:48.014Z,8.90
2017-11-11T13:24:15.768Z,8.70
2017-11-11T13:26:43.514Z,8.70
2017-11-11T13:29:11.396Z,8.70
2017-11-11T13:31:39.134Z,8.60
2017-11-11T13:34:06.883Z,8.60
2017-11-11T13:36:34.672Z,8.60
2017-11-11T13:39:02.423Z,8.60
2017-11-11T13:41:30.176Z,8.50
2017-11-11T13:43:57.960Z,8.40
2017-11-11T13:46:25.838Z,8.40
2017-11-11T13:48:53.582Z,8.40
2017-11-11T13:51:21.377Z,8.50
2017-11-11T13:53:49.124Z,8.60
2017-11-11T13:56:16.864Z,8.70
2017-11-11T13:58:44.659Z,8.70
2017-11-11T14:01:12.408Z,8.70
2017-11-11T14:03:40.150Z,8.70
2017-11-11T14:06:07.932Z,8.60
2017-11-11T14:08:35.787Z,8.50
2017-11-11T14:11:03.540Z,8.50
2017-11-11T14:13:31.332Z,8.50
2017-11-11T14:15:59.848Z,8.30
2017-11-11T14:18:27.600Z,8.30
2017-11-11T14:20:55.383Z,8.30
2017-11-11T14:23:23.281Z,8.30
2017-11-11T14:25:51.150Z,8.30
2017-11-11T14:28:18.936Z,8.20
2017-11-11T14:30:47.448Z,8.20
2017-11-11T14:33:15.246Z,8.20
2017-11-11T14:35:43.042Z,8.10
2017-11-11T14:38:11.557Z,8.10
2017-11-11T14:40:39.345Z,8.10
2017-11-11T14:43:07.306Z,8.00
2017-11-11T14:45:35.059Z,8.00
2017-11-11T14:48:02.945Z,8.00
2017-11-11T14:50:30.738Z,8.00
2017-11-11T14:52:59.393Z,7.90
2017-11-11T14:55:27.903Z,7.90
2017-11-11T14:57:56.467Z,7.90
2017-11-11T15:00:24.215Z,7.80
2017-11-11T15:02:51.965Z,7.90
2017-11-11T15:05:19.738Z,7.90
2017-11-11T15:07:47.487Z,7.80
2017-11-11T15:10:15.999Z,7.70
2017-11-11T15:12:43.783Z,7.70
2017-11-11T15:15:11.542Z,7.80
2017-11-11T15:17:39.294Z,7.80
2017-11-11T15:20:07.843Z,7.80
2017-11-11T15:22:35.589Z,7.80
2017-11-11T15:25:03.341Z,7.70
2017-11-11T15:27:31.140Z,7.70
2017-11-11T15:29:58.893Z,7.70
2017-11-11T15:32:26.647Z,7.60
2017-11-11T15:34:54.437Z,7.50
2017-11-11T15:37:22.952Z,7.50
2017-11-11T15:39:50.698Z,7.50
2017-11-11T15:42:18.489Z,7.30
2017-11-11T15:44:46.250Z,7.10
2017-11-11T15:47:14.068Z,7.00
2017-11-11T15:49:41.859Z,6.80
2017-11-11T15:52:09.619Z,6.70
2017-11-11T15:54:37.380Z,6.60
2017-11-11T15:57:05.285Z,6.50
2017-11-11T15:59:33.026Z,6.40
2017-11-11T16:02:00.770Z,6.40
2017-11-11T16:04:28.644Z,6.40
2017-11-11T16:06:56.390Z,6.40
2017-11-11T16:09:24.132Z,6.40
2017-11-11T16:11:52.776Z,6.40
2017-11-11T16:14:21.309Z,6.40
2017-11-11T16:16:49.064Z,6.30
2017-11-11T16:19:17.500Z,6.40
2017-11-11T16:21:45.245Z,6.40
2017-11-11T16:24:13.003Z,6.40
2017-11-11T16:26:40.792Z,6.50
2017-11-11T16:29:08.619Z,6.50
2017-11-11T16:31:36.375Z,6.50
2017-11-11T16:34:04.163Z,6.50
2017-11-11T16:36:31.916Z,6.50
2017-11-11T16:38:59.802Z,6.50
2017-11-11T16:41:27.591Z,6.60
2017-11-11T16:43:55.353Z,6.40
2017-11-11T16:46:23.878Z,6.40
2017-11-11T16:48:51.663Z,6.40
2017-11-11T16:51:19.523Z,6.40
2017-11-11T16:53:47.290Z,6.40
2017-11-11T16:56:15.071Z,6.40
2017-11-11T16:58:43.729Z,6.30
2017-11-11T17:01:11.592Z,6.30
2017-11-11T17:03:39.441Z,6.40
2017-11-11T17:06:07.200Z,6.40
2017-11-11T17:08:34.952Z,6.50
2017-11-11T17:11:02.845Z,6.40
2017-11-11T17:13:30.592Z,6.40
2017-11-11T17:15:58.342Z,6.40
2017-11-11T17:18:26.131Z,6.40
2017-11-11T17:20:53.879Z,6.40
2017-11-11T17:23:21.631Z,6.40
2017-11-11T17:25:49.517Z,6.40
2017-11-11T17:28:17.264Z,6.40
2017-11-11T17:30:45.012Z,6.40
2017-11-11T17:33:12.800Z,6.50
2017-11-11T17:35:40.558Z,6.40
2017-11-11T17:38:08.308Z,6.50
2017-11-11T17:40:36.090Z,6.40
2017-11-11T17:43:03.832Z,6.50
2017-11-11T17:45:31.588Z,6.50
2017-11-11T17:47:59.379Z,6.40
2017-11-11T17:50:27.236Z,6.40
2017-11-11T17:52:55.101Z,6.40
2017-11-11T17:55:22.961Z,6.40
2017-11-11T17:57:50.729Z,6.30
2017-11-11T18:00:18.489Z,6.30
2017-11-11T18:02:46.303Z,6.20
2017-11-11T18:05:14.154Z,6.30
2017-11-11T18:07:42.672Z,6.30
2017-11-11T18:10:10.557Z,6.30
2017-11-11T18:12:38.319Z,6.30
2017-11-11T18:15:06.072Z,6.30
2017-11-11T18:17:33.850Z,6.40
2017-11-11T18:20:01.621Z,6.40
2017-11-11T18:22:29.366Z,6.50
2017-11-11T18:24:57.916Z,6.50
2017-11-11T18:27:25.683Z,6.50
2017-11-11T18:29:53.437Z,6.50
2017-11-11T18:32:21.230Z,6.50
2017-11-11T18:34:48.972Z,6.50
2017-11-11T18:37:16.714Z,6.60
2017-11-11T18:39:44.501Z,6.60
2017-11-11T18:42:12.251Z,6.60
2017-11-11T18:44:39.996Z,6.60
2017-11-11T18:47:07.903Z,6.60
2017-11-11T18:49:35.643Z,6.60
2017-11-11T18:52:03.382Z,6.50
2017-11-11T18:54:31.214Z,6.40
2017-11-11T18:57:00.073Z,6.30
2017-11-11T18:59:28.724Z,6.30
2017-11-11T19:01:56.507Z,6.30
2017-11-11T19:04:24.256Z,6.30
2017-11-11T19:06:52.019Z,6.20
2017-11-11T19:09:19.808Z,6.20
2017-11-11T19:11:47.566Z,6.20
2017-11-11T19:14:15.307Z,6.20
2017-11-11T19:16:43.096Z,6.20
2017-11-11T19:19:10.876Z,6.10
2017-11-11T19:21:38.714Z,6.20
2017-11-11T19:24:06.578Z,6.20
2017-11-11T19:26:34.357Z,6.30
2017-11-11T19:29:02.102Z,6.30
2017-11-11T19:31:29.915Z,6.10
2017-11-11T19:33:57.658Z,6.10
2017-11-11T19:36:26.168Z,6.00
2017-11-11T19:38:53.989Z,6.00
2017-11-11T19:41:21.739Z,6.10
2017-11-11T19:43:49.596Z,6.20
2017-11-11T19:46:17.382Z,6.20
2017-11-11T19:48:45.129Z,6.30
2017-11-11T19:51:12.906Z,6.30
2017-11-11T19:53:41.484Z,6.40
2017-11-11T19:56:09.228Z,6.40
2017-11-11T19:58:36.972Z,6.40
2017-11-11T20:01:04.760Z,6.40
2017-11-11T20:03:32.507Z,6.50
2017-11-11T20:06:00.256Z,6.40
2017-11-11T20:08:28.039Z,6.40
2017-11-11T20:10:55.791Z,6.50
2017-11-11T20:13:23.550Z,6.50
2017-11-11T20:15:51.340Z,6.60
2017-11-11T20:18:19.850Z,6.70
2017-11-11T20:20:47.591Z,6.60
2017-11-11T20:23:16.237Z,6.50
2017-11-11T20:25:43.983Z,6.50
2017-11-11T20:28:11.731Z,6.50
2017-11-11T20:30:39.527Z,6.50
2017-11-11T20:33:07.281Z,6.50
2017-11-11T20:35:35.790Z,6.50
2017-11-11T20:38:04.343Z,6.50
2017-11-11T20:40:32.207Z,6.50
2017-11-11T20:43:00.081Z,6.40
2017-11-11T20:45:27.873Z,6.30
2017-11-11T20:47:56.387Z,6.30
2017-11-11T20:50:24.185Z,6.20
2017-11-11T20:52:53.812Z,6.30
2017-11-11T20:55:22.352Z,6.30
2017-11-11T20:57:50.131Z,6.30
2017-11-11T21:00:17.987Z,6.30
2017-11-11T21:02:46.496Z,6.30
2017-11-11T21:05:15.007Z,6.30
2017-11-11T21:07:42.788Z,6.30
2017-11-11T21:10:10.554Z,6.30
2017-11-11T21:12:38.433Z,6.30
2017-11-11T21:15:06.247Z,6.20
2017-11-11T21:17:33.986Z,6.30
2017-11-11T21:20:02.500Z,6.30
2017-11-11T21:22:30.301Z,6.30
2017-11-11T21:24:58.075Z,6.30
2017-11-11T21:27:25.820Z,6.30
2017-11-11T21:29:53.687Z,6.20
2017-11-11T21:32:21.453Z,6.10
2017-11-11T21:34:50.336Z,6.10
2017-11-11T21:37:18.200Z,6.10
2017-11-11T21:39:46.090Z,6.00
2017-11-11T21:42:14.604Z,6.00
2017-11-11T21:44:42.408Z,6.00
2017-11-11T21:47:10.269Z,6.00
2017-11-11T21:49:38.016Z,6.10
2017-11-11T21:52:05.828Z,6.10
2017-11-11T21:54:34.343Z,6.10
2017-11-11T21:57:02.103Z,6.10
2017-11-11T21:59:30.201Z,6.10
2017-11-11T22:01:57.944Z,6.10
2017-11-11T22:04:25.694Z,6.10
2017-11-11T22:06:53.592Z,6.20
2017-11-11T22:09:21.338Z,6.30
2017-11-11T22:11:49.524Z,6.30
2017-11-11T22:14:17.309Z,6.30
2017-11-11T22:16:45.148Z,6.30
2017-11-11T22:19:13.731Z,6.40
2017-11-11T22:21:41.510Z,6.40
2017-11-11T22:24:09.258Z,6.50
2017-11-11T22:26:37.116Z,6.50
2017-11-11T22:29:04.891Z,6.50
2017-11-11T22:31:32.638Z,6.60
2017-11-11T22:34:00.377Z,6.50
2017-11-11T22:36:28.164Z,6.50
2017-11-11T22:38:55.903Z,6.50
2017-11-11T22:41:23.684Z,6.40
2017-11-11T22:43:51.471Z,6.30
2017-11-11T22:46:19.311Z,6.20
2017-11-11T22:48:47.055Z,6.20
2017-11-11T22:51:14.840Z,6.10
2017-11-11T22:53:42.699Z,6.00
2017-11-11T22:56:10.453Z,6.00
2017-11-11T22:58:38.240Z,5.90
2017-11-11T23:01:05.984Z,5.90
2017-11-11T23:03:33.731Z,5.80
2017-11-11T23:06:01.508Z,5.80
2017-11-11T23:08:29.242Z,5.70
2017-11-11T23:10:58.228Z,5.70
2017-11-11T23:13:26.049Z,5.70
2017-11-11T23:15:54.560Z,5.70
2017-11-11T23:18:22.365Z,5.70
2017-11-11T23:20:50.139Z,5.70
2017-11-11T23:23:17.988Z,5.80
2017-11-11T23:25:45.852Z,5.80
2017-11-11T23:28:13.657Z,5.70
2017-11-11T23:30:41.431Z,5.70
2017-11-11T23:33:09.342Z,5.60
2017-11-11T23:35:37.129Z,5.40
2017-11-11T23:38:04.983Z,5.30
2017-11-11T23:40:32.729Z,5.30
2017-11-11T23:43:00.510Z,5.30
2017-11-11T23:45:28.295Z,5.30
2017-11-11T23:47:56.046Z,5.20
2017-11-11T23:50:24.600Z,5.30
2017-11-11T23:52:52.344Z,5.30
2017-11-11T23:55:20.087Z,5.30
2017-11-11T23:57:47.970Z,5.30
